createdAt,value
2023-05-14T00:01:36.503Z,102235.66
2023-05-14T00:04:04.389Z,102240.61
2023-05-14T00:06:32.130Z,102241.70
2023-05-14T00:08:59.190Z,102242.31
2023-05-14T00:11:26.238Z,102241.11
2023-05-14T00:13:53.580Z,102243.09
2023-05-14T00:16:20.648Z,102240.48
2023-05-14T00:18:47.766Z,102245.88
2023-05-14T00:21:14.958Z,102246.52
2023-05-14T00:23:41.997Z,102245.38
2023-05-14T00:26:09.428Z,102247.16
2023-05-14T00:28:37.303Z,102246.05
2023-05-14T00:31:05.024Z,102248.39
2023-05-14T00:33:32.790Z,102244.75
2023-05-14T00:36:00.154Z,102246.70
2023-05-14T00:38:28.866Z,102247.52
2023-05-14T00:40:56.021Z,102249.73
2023-05-14T00:43:23.471Z,102252.59
2023-05-14T00:45:51.644Z,102252.87
2023-05-14T00:48:18.796Z,102249.61
2023-05-14T00:50:46.057Z,102252.88
2023-05-14T00:53:13.096Z,102249.98
2023-05-14T00:55:41.574Z,102254.60
2023-05-14T00:58:13.746Z,102258.84
2023-05-14T01:00:41.111Z,102256.42
2023-05-14T01:03:09.075Z,102257.81
2023-05-14T01:05:55.256Z,102257.04
2023-05-14T01:08:31.552Z,102258.05
2023-05-14T01:11:13.217Z,102253.98
2023-05-14T01:14:18.247Z,102253.27
2023-05-14T01:16:46.242Z,102249.25
2023-05-14T01:19:29.860Z,102255.31
2023-05-14T01:21:56.900Z,102250.61
2023-05-14T01:24:24.252Z,102250.11
2023-05-14T01:26:51.810Z,102249.32
2023-05-14T01:29:22.041Z,102249.88
2023-05-14T01:31:50.463Z,102249.20
2023-05-14T01:34:23.090Z,102252.02
2023-05-14T01:36:51.365Z,102256.50
2023-05-14T01:39:19.272Z,102255.48
2023-05-14T01:41:47.082Z,102254.08
2023-05-14T01:44:14.246Z,102253.80
2023-05-14T01:46:41.584Z,102258.24
2023-05-14T01:49:08.954Z,102260.22
2023-05-14T01:51:36.317Z,102258.86
2023-05-14T01:54:03.455Z,102256.08
2023-05-14T01:56:30.720Z,102258.64
2023-05-14T01:58:57.866Z,102255.24
2023-05-14T02:01:26.288Z,102256.50
2023-05-14T02:03:53.733Z,102253.59
2023-05-14T02:06:21.865Z,102252.38
2023-05-14T02:08:48.936Z,102254.52
2023-05-14T02:11:16.062Z,102258.08
2023-05-14T02:13:43.316Z,102255.29
2023-05-14T02:16:10.616Z,102253.09
2023-05-14T02:18:37.897Z,102250.49
2023-05-14T02:21:05.284Z,102251.59
2023-05-14T02:23:41.084Z,102256.70
2023-05-14T02:26:10.235Z,102254.98
2023-05-14T02:28:37.304Z,102254.30
2023-05-14T02:31:04.812Z,102253.11
2023-05-14T02:33:32.031Z,102253.20
2023-05-14T02:35:59.147Z,102253.60
2023-05-14T02:38:26.827Z,102256.45
2023-05-14T02:40:55.576Z,102258.06
2023-05-14T02:43:22.726Z,102258.97
2023-05-14T02:45:49.782Z,102261.27
2023-05-14T02:48:16.831Z,102262.19
2023-05-14T02:50:44.176Z,102260.45
2023-05-14T02:53:11.743Z,102263.15
2023-05-14T02:55:38.973Z,102265.54
2023-05-14T02:58:06.038Z,102270.17
2023-05-14T03:00:33.145Z,102274.98
2023-05-14T03:03:01.060Z,102274.95
2023-05-14T03:05:28.914Z,102271.36
2023-05-14T03:07:56.087Z,102271.86
2023-05-14T03:10:23.595Z,102272.20
2023-05-14T03:12:50.978Z,102277.81
2023-05-14T03:15:18.333Z,102280.42
2023-05-14T03:17:45.563Z,102282.67
2023-05-14T03:20:13.552Z,102280.13
2023-05-14T03:22:40.825Z,102284.75
2023-05-14T03:25:08.777Z,102284.79
2023-05-14T03:27:36.433Z,102287.98
2023-05-14T03:30:04.716Z,102286.22
2023-05-14T03:32:31.900Z,102286.45
2023-05-14T03:34:59.220Z,102287.14
2023-05-14T03:37:26.260Z,102289.05
2023-05-14T03:39:53.405Z,102288.14
2023-05-14T03:42:20.558Z,102289.98
2023-05-14T03:44:48.116Z,102290.80
2023-05-14T03:47:15.166Z,102294.26
2023-05-14T03:49:42.250Z,102297.95
2023-05-14T03:52:10.284Z,102297.77
2023-05-14T03:54:38.761Z,102300.09
2023-05-14T03:57:05.919Z,102299.30
2023-05-14T03:59:33.067Z,102306.17
2023-05-14T04:02:00.143Z,102304.21
2023-05-14T04:04:27.427Z,102310.39
2023-05-14T04:06:54.628Z,102306.05
2023-05-14T04:09:21.863Z,102300.88
2023-05-14T04:11:48.920Z,102300.41
2023-05-14T04:14:15.988Z,102299.25
2023-05-14T04:16:44.216Z,102298.67
2023-05-14T04:19:11.579Z,102298.25
2023-05-14T04:21:39.256Z,102297.77
2023-05-14T04:24:06.920Z,102300.95
2023-05-14T04:26:33.958Z,102297.44
2023-05-14T04:29:03.336Z,102304.06
2023-05-14T04:31:30.736Z,102306.63
2023-05-14T04:33:57.865Z,102309.37
2023-05-14T04:36:25.110Z,102305.64
2023-05-14T04:38:52.463Z,102302.97
2023-05-14T04:41:19.721Z,102305.93
2023-05-14T04:43:47.477Z,102308.08
2023-05-14T04:46:14.661Z,102308.80
2023-05-14T04:48:42.190Z,102309.29
2023-05-14T04:51:09.234Z,102314.69
2023-05-14T04:53:36.481Z,102318.81
2023-05-14T04:56:03.571Z,102324.70
2023-05-14T04:58:34.559Z,102317.23
2023-05-14T05:01:03.270Z,102318.92
2023-05-14T05:03:30.393Z,102317.98
2023-05-14T05:05:57.783Z,102322.41
2023-05-14T05:08:24.916Z,102321.70
2023-05-14T05:10:52.067Z,102322.87
2023-05-14T05:13:19.222Z,102325.54
2023-05-14T05:15:46.319Z,102329.47
2023-05-14T05:18:13.618Z,102323.94
2023-05-14T05:20:40.768Z,102319.77
2023-05-14T05:23:07.916Z,102321.74
2023-05-14T05:25:34.968Z,102320.81
2023-05-14T05:28:01.916Z,102317.50
2023-05-14T05:30:30.409Z,102323.30
2023-05-14T05:32:58.039Z,102317.80
2023-05-14T05:35:25.306Z,102317.10
2023-05-14T05:37:52.365Z,102321.10
2023-05-14T05:40:19.396Z,102325.16
2023-05-14T05:42:46.644Z,102329.59
2023-05-14T05:45:13.714Z,102326.58
2023-05-14T05:47:41.115Z,102324.67
2023-05-14T05:50:09.986Z,102332.36
2023-05-14T05:52:37.111Z,102332.94
2023-05-14T05:55:04.417Z,102333.39
2023-05-14T05:57:31.602Z,102336.08
2023-05-14T05:59:58.848Z,102339.40
2023-05-14T06:02:26.253Z,102342.56
2023-05-14T06:04:53.781Z,102341.52
2023-05-14T06:07:21.414Z,102342.29
2023-05-14T06:09:48.475Z,102341.88
2023-05-14T06:12:15.627Z,102338.96
2023-05-14T06:14:42.659Z,102338.52
2023-05-14T06:17:09.727Z,102336.77
2023-05-14T06:19:36.960Z,102339.06
2023-05-14T06:22:04.420Z,102338.86
2023-05-14T06:24:31.667Z,102341.57
2023-05-14T06:26:58.713Z,102342.16
2023-05-14T06:29:25.885Z,102343.20
2023-05-14T06:31:53.156Z,102341.65
2023-05-14T06:34:20.366Z,102340.45
2023-05-14T06:36:47.621Z,102341.01
2023-05-14T06:39:14.692Z,102339.95
2023-05-14T06:41:41.814Z,102339.29
2023-05-14T06:44:09.677Z,102340.04
2023-05-14T06:46:37.134Z,102339.46
2023-05-14T06:49:04.458Z,102338.83
2023-05-14T06:51:31.644Z,102331.75
2023-05-14T06:53:58.777Z,102330.02
2023-05-14T06:56:26.245Z,102329.63
2023-05-14T06:58:53.290Z,102326.34
2023-05-14T07:01:20.472Z,102332.21
2023-05-14T07:03:47.502Z,102332.17
2023-05-14T07:06:14.533Z,102332.07
2023-05-14T07:08:46.014Z,102327.27
2023-05-14T07:11:15.918Z,102334.91
2023-05-14T07:13:43.089Z,102331.44
2023-05-14T07:16:10.606Z,102330.39
2023-05-14T07:18:37.703Z,102333.35
2023-05-14T07:21:06.761Z,102331.83
2023-05-14T07:23:36.498Z,102330.20
2023-05-14T07:26:04.329Z,102330.67
2023-05-14T07:28:31.374Z,102327.71
2023-05-14T07:30:58.452Z,102323.86
2023-05-14T07:33:25.678Z,102320.14
2023-05-14T07:35:53.028Z,102326.83
2023-05-14T07:38:20.173Z,102323.89
2023-05-14T07:40:47.532Z,102323.48
2023-05-14T07:43:14.683Z,102322.58
2023-05-14T07:45:41.815Z,102325.24
2023-05-14T07:48:09.110Z,102320.72
2023-05-14T07:50:37.459Z,102319.44
2023-05-14T07:53:04.520Z,102320.14
2023-05-14T07:55:31.753Z,102315.34
2023-05-14T07:57:59.122Z,102311.89
2023-05-14T08:00:26.474Z,102312.12
2023-05-14T08:02:55.370Z,102312.99
2023-05-14T08:05:22.608Z,102312.93
2023-05-14T08:07:49.657Z,102311.38
2023-05-14T08:10:16.909Z,102308.34
2023-05-14T08:12:44.054Z,102306.98
2023-05-14T08:15:11.414Z,102314.92
2023-05-14T08:17:38.529Z,102318.46
2023-05-14T08:20:08.003Z,102323.24
2023-05-14T08:22:35.123Z,102326.21
2023-05-14T08:25:04.104Z,102326.30
2023-05-14T08:27:31.154Z,102324.67
2023-05-14T08:29:58.148Z,102324.56
2023-05-14T08:32:25.289Z,102328.76
2023-05-14T08:34:52.750Z,102330.91
2023-05-14T08:37:19.873Z,102329.02
2023-05-14T08:39:46.963Z,102327.63
2023-05-14T08:42:14.010Z,102323.11
2023-05-14T08:44:44.371Z,102318.14
2023-05-14T08:47:11.944Z,102319.39
2023-05-14T08:49:43.179Z,102320.03
2023-05-14T08:52:10.288Z,102318.34
2023-05-14T08:54:37.370Z,102318.85
2023-05-14T08:57:05.347Z,102315.04
2023-05-14T08:59:32.796Z,102316.39
2023-05-14T09:02:02.157Z,102322.27
2023-05-14T09:04:29.969Z,102324.35
2023-05-14T09:06:57.009Z,102323.38
2023-05-14T09:09:24.162Z,102320.98
2023-05-14T09:11:52.456Z,102319.98
2023-05-14T09:14:19.630Z,102315.38
2023-05-14T09:16:47.451Z,102315.18
2023-05-14T09:19:15.963Z,102312.43
2023-05-14T09:21:43.500Z,102311.77
2023-05-14T09:24:22.267Z,102311.86
2023-05-14T09:26:54.514Z,102308.67
2023-05-14T09:29:38.155Z,102310.70
2023-05-14T09:32:07.693Z,102312.48
2023-05-14T09:34:35.388Z,102307.28
2023-05-14T09:37:04.680Z,102308.06
2023-05-14T09:39:32.547Z,102304.01
2023-05-14T09:41:59.799Z,102303.14
2023-05-14T09:44:27.883Z,102300.65
2023-05-14T09:46:55.493Z,102304.27
2023-05-14T09:49:23.086Z,102305.70
2023-05-14T09:51:50.240Z,102306.34
2023-05-14T09:54:17.801Z,102303.06
2023-05-14T09:56:45.071Z,102303.19
2023-05-14T09:59:12.411Z,102307.06
2023-05-14T10:01:39.912Z,102310.58
2023-05-14T10:04:07.936Z,102313.02
2023-05-14T10:06:38.572Z,102311.29
2023-05-14T10:09:13.587Z,102311.88
2023-05-14T10:11:43.635Z,102310.27
2023-05-14T10:14:36.077Z,102308.10
2023-05-14T10:17:03.238Z,102310.31
2023-05-14T10:19:30.471Z,102309.20
2023-05-14T10:22:04.445Z,102310.08
2023-05-14T10:24:31.830Z,102311.42
2023-05-14T10:26:59.174Z,102310.92
2023-05-14T10:29:36.062Z,102306.63
2023-05-14T10:32:08.246Z,102305.87
2023-05-14T10:34:38.831Z,102310.78
2023-05-14T10:37:14.606Z,102311.48
2023-05-14T10:39:48.828Z,102310.23
2023-05-14T10:42:29.290Z,102306.20
2023-05-14T10:45:07.701Z,102305.41
2023-05-14T10:47:36.428Z,102308.59
2023-05-14T10:50:05.427Z,102313.90
2023-05-14T10:52:33.078Z,102310.61
2023-05-14T10:55:04.376Z,102307.23
2023-05-14T10:57:31.846Z,102308.20
2023-05-14T11:00:00.243Z,102311.16
2023-05-14T11:02:34.341Z,102310.10
2023-05-14T11:05:14.066Z,102312.04
2023-05-14T11:07:42.559Z,102310.85
2023-05-14T11:10:11.249Z,102310.29
2023-05-14T11:12:41.273Z,102308.62
2023-05-14T11:15:09.952Z,102304.29
2023-05-14T11:17:37.472Z,102304.79
2023-05-14T11:20:08.347Z,102305.48
2023-05-14T11:22:36.015Z,102307.63
2023-05-14T11:25:03.460Z,102301.77
2023-05-14T11:27:31.730Z,102302.91
2023-05-14T11:30:01.127Z,102298.03
2023-05-14T11:32:28.217Z,102293.04
2023-05-14T11:34:55.328Z,102288.23
2023-05-14T11:37:22.684Z,102286.39
2023-05-14T11:39:52.223Z,102289.70
2023-05-14T11:42:19.956Z,102282.71
2023-05-14T11:44:47.842Z,102280.38
2023-05-14T11:47:14.873Z,102281.41
2023-05-14T11:49:42.114Z,102276.41
2023-05-14T11:52:14.592Z,102272.34
2023-05-14T11:54:42.866Z,102273.98
2023-05-14T11:57:18.104Z,102270.93
2023-05-14T11:59:45.559Z,102264.77
2023-05-14T12:02:14.316Z,102264.68
2023-05-14T12:04:42.292Z,102262.30
2023-05-14T12:07:10.100Z,102261.67
2023-05-14T12:09:42.532Z,102256.22
2023-05-14T12:12:11.859Z,102257.48
2023-05-14T12:14:41.774Z,102256.29
2023-05-14T12:17:16.814Z,102255.80
2023-05-14T12:19:44.666Z,102259.34
2023-05-14T12:22:12.129Z,102255.77
2023-05-14T12:24:39.590Z,102254.73
2023-05-14T12:27:07.357Z,102253.08
2023-05-14T12:29:39.205Z,102253.85
2023-05-14T12:32:09.636Z,102257.13
2023-05-14T12:34:37.783Z,102255.85
2023-05-14T12:37:08.534Z,102255.23
2023-05-14T12:39:36.002Z,102253.37
2023-05-14T12:42:03.140Z,102252.20
2023-05-14T12:44:30.198Z,102250.34
2023-05-14T12:46:58.008Z,102244.56
2023-05-14T12:49:25.309Z,102245.10
2023-05-14T12:55:14.290Z,102246.52
2023-05-14T12:57:41.846Z,102241.59
2023-05-14T13:00:13.880Z,102238.02
2023-05-14T13:02:42.975Z,102235.02
2023-05-14T13:05:12.135Z,102231.69
2023-05-14T13:07:39.477Z,102232.73
2023-05-14T13:10:07.234Z,102236.58
2023-05-14T13:12:34.556Z,102237.57
2023-05-14T13:15:01.823Z,102232.20
2023-05-14T13:17:28.894Z,102229.14
2023-05-14T13:19:56.336Z,102223.38
2023-05-14T13:22:23.370Z,102224.90
2023-05-14T13:24:50.624Z,102221.83
2023-05-14T13:27:17.684Z,102221.44
2023-05-14T13:29:44.738Z,102218.73
2023-05-14T13:32:12.089Z,102218.20
2023-05-14T13:34:39.120Z,102217.50
2023-05-14T13:37:06.298Z,102218.15
2023-05-14T13:39:33.341Z,102216.79
2023-05-14T13:42:01.395Z,102215.05
2023-05-14T13:44:28.741Z,102212.42
2023-05-14T13:46:55.811Z,102206.23
2023-05-14T13:49:22.938Z,102204.48
2023-05-14T13:51:49.997Z,102206.99
2023-05-14T13:54:17.045Z,102209.69
2023-05-14T13:56:44.290Z,102209.59
2023-05-14T13:59:11.538Z,102208.77
2023-05-14T14:01:38.745Z,102208.99
2023-05-14T14:04:05.950Z,102208.16
2023-05-14T14:06:33.944Z,102205.73
2023-05-14T14:09:01.272Z,102202.67
2023-05-14T14:11:28.308Z,102201.05
2023-05-14T14:13:55.662Z,102198.31
2023-05-14T14:16:22.977Z,102197.59
2023-05-14T14:18:50.631Z,102194.11
2023-05-14T14:21:18.547Z,102190.94
2023-05-14T14:23:48.781Z,102184.48
2023-05-14T14:26:16.139Z,102186.61
2023-05-14T14:28:43.265Z,102185.89
2023-05-14T14:31:11.042Z,102185.69
2023-05-14T14:33:38.305Z,102181.56
2023-05-14T14:36:06.194Z,102180.94
2023-05-14T14:38:33.300Z,102186.77
2023-05-14T14:41:00.654Z,102189.98
2023-05-14T14:43:28.215Z,102184.61
2023-05-14T14:45:55.730Z,102181.80
2023-05-14T14:48:28.135Z,102181.92
2023-05-14T14:50:55.733Z,102186.10
2023-05-14T14:53:22.858Z,102187.59
2023-05-14T14:55:50.211Z,102190.01
2023-05-14T14:58:18.476Z,102186.98
2023-05-14T15:00:46.043Z,102186.91
2023-05-14T15:03:15.256Z,102191.80
2023-05-14T15:05:42.709Z,102199.00
2023-05-14T15:08:10.468Z,102202.02
2023-05-14T15:10:38.487Z,102199.02
2023-05-14T15:13:06.220Z,102197.64
2023-05-14T15:15:34.065Z,102193.58
2023-05-14T15:18:01.645Z,102194.66
2023-05-14T15:20:28.770Z,102192.20
2023-05-14T15:22:56.131Z,102195.45
2023-05-14T15:25:24.009Z,102188.52
2023-05-14T15:27:51.352Z,102183.80
2023-05-14T15:30:18.931Z,102176.44
2023-05-14T15:32:46.891Z,102164.04
2023-05-14T15:35:14.171Z,102156.60
2023-05-14T15:37:43.016Z,102156.82
2023-05-14T15:40:11.198Z,102158.94
2023-05-14T15:42:39.056Z,102164.67
2023-05-14T15:45:06.733Z,102162.92
2023-05-14T15:47:34.005Z,102159.90
2023-05-14T15:50:01.334Z,102159.73
2023-05-14T15:52:28.690Z,102157.39
2023-05-14T15:54:57.664Z,102164.12
2023-05-14T15:57:24.815Z,102164.49
2023-05-14T15:59:52.170Z,102166.77
2023-05-14T16:02:19.214Z,102161.98
2023-05-14T16:04:46.570Z,102165.83
2023-05-14T16:07:13.613Z,102163.60
2023-05-14T16:09:40.666Z,102162.91
2023-05-14T16:12:08.293Z,102163.85
2023-05-14T16:14:35.826Z,102164.77
2023-05-14T16:17:03.031Z,102167.31
2023-05-14T16:19:30.181Z,102166.58
2023-05-14T16:21:57.254Z,102164.05
2023-05-14T16:24:24.392Z,102161.67
2023-05-14T16:26:51.841Z,102165.88
2023-05-14T16:29:18.982Z,102169.27
2023-05-14T16:31:46.477Z,102167.10
2023-05-14T16:34:13.818Z,102175.23
2023-05-14T16:36:41.296Z,102176.23
2023-05-14T16:39:08.908Z,102168.05
2023-05-14T16:41:36.374Z,102163.55
2023-05-14T16:44:03.714Z,102161.80
2023-05-14T16:46:31.449Z,102160.38
2023-05-14T16:48:58.670Z,102156.41
2023-05-14T16:51:25.897Z,102151.94
2023-05-14T16:53:55.337Z,102145.13
2023-05-14T16:56:23.453Z,102143.06
2023-05-14T16:58:50.705Z,102142.77
2023-05-14T17:01:17.970Z,102143.75
2023-05-14T17:03:45.924Z,102137.67
2023-05-14T17:06:13.071Z,102135.11
2023-05-14T17:08:40.119Z,102134.64
2023-05-14T17:11:07.197Z,102133.69
2023-05-14T17:13:34.421Z,102127.40
2023-05-14T17:16:02.152Z,102127.68
2023-05-14T17:18:29.818Z,102127.80
2023-05-14T17:20:57.203Z,102127.73
2023-05-14T17:23:24.242Z,102131.00
2023-05-14T17:25:51.604Z,102135.48
2023-05-14T17:28:18.852Z,102136.50
2023-05-14T17:30:46.212Z,102138.02
2023-05-14T17:33:13.260Z,102147.34
2023-05-14T17:35:40.501Z,102147.39
2023-05-14T17:38:07.767Z,102149.20
2023-05-14T17:40:34.897Z,102155.11
2023-05-14T17:43:02.085Z,102160.14
2023-05-14T17:45:36.433Z,102167.58
2023-05-14T17:48:10.205Z,102164.94
2023-05-14T17:50:37.327Z,102170.73
2023-05-14T17:53:04.489Z,102167.50
2023-05-14T17:55:31.632Z,102163.03
2023-05-14T17:57:58.681Z,102157.15
2023-05-14T18:00:25.940Z,102156.52
2023-05-14T18:02:53.049Z,102155.73
2023-05-14T18:05:20.894Z,102151.80
2023-05-14T18:07:48.103Z,102153.90
2023-05-14T18:10:15.162Z,102153.67
2023-05-14T18:12:42.919Z,102159.23
2023-05-14T18:15:10.574Z,102158.79
2023-05-14T18:17:37.800Z,102158.73
2023-05-14T18:20:05.810Z,102158.13
2023-05-14T18:22:32.848Z,102161.40
2023-05-14T18:25:00.219Z,102156.52
2023-05-14T18:27:27.247Z,102153.02
2023-05-14T18:29:54.716Z,102154.33
2023-05-14T18:32:21.955Z,102154.20
2023-05-14T18:34:49.002Z,102153.58
2023-05-14T18:37:16.260Z,102152.59
2023-05-14T18:39:43.331Z,102156.02
2023-05-14T18:42:11.075Z,102158.91
2023-05-14T18:44:41.594Z,102167.03
2023-05-14T18:47:08.640Z,102178.10
2023-05-14T18:49:38.966Z,102183.10
2023-05-14T18:52:07.041Z,102189.84
2023-05-14T18:54:34.288Z,102194.70
2023-05-14T18:57:01.538Z,102193.51
2023-05-14T18:59:28.589Z,102200.46
2023-05-14T19:01:56.066Z,102203.89
2023-05-14T19:04:23.222Z,102199.74
2023-05-14T19:06:51.088Z,102191.52
2023-05-14T19:09:21.309Z,102197.25
2023-05-14T19:11:48.738Z,102194.54
2023-05-14T19:14:15.982Z,102192.35
2023-05-14T19:16:43.031Z,102196.36
2023-05-14T19:19:10.797Z,102200.37
2023-05-14T19:21:37.970Z,102199.84
2023-05-14T19:24:05.713Z,102201.27
2023-05-14T19:26:32.960Z,102204.98
2023-05-14T19:29:00.008Z,102203.40
2023-05-14T19:31:27.768Z,102201.83
2023-05-14T19:33:55.147Z,102201.08
2023-05-14T19:36:22.374Z,102199.23
2023-05-14T19:38:49.730Z,102199.09
2023-05-14T19:41:16.774Z,102207.45
2023-05-14T19:43:43.930Z,102212.41
2023-05-14T19:46:10.920Z,102215.59
2023-05-14T19:48:39.146Z,102219.84
2023-05-14T19:51:06.395Z,102220.91
2023-05-14T19:53:33.483Z,102207.52
2023-05-14T19:56:02.236Z,102195.18
2023-05-14T19:58:29.296Z,102196.42
2023-05-14T20:00:57.617Z,102191.19
2023-05-14T20:03:27.827Z,102188.46
2023-05-14T20:05:56.780Z,102184.67
2023-05-14T20:08:25.146Z,102184.61
2023-05-14T20:10:52.301Z,102178.89
2023-05-14T20:13:19.325Z,102176.27
2023-05-14T20:15:46.902Z,102170.15
2023-05-14T20:18:13.953Z,102166.27
2023-05-14T20:20:41.099Z,102163.14
2023-05-14T20:23:08.150Z,102162.07
2023-05-14T20:25:35.603Z,102155.75
2023-05-14T20:28:02.958Z,102153.63
2023-05-14T20:30:30.240Z,102154.52
2023-05-14T20:32:58.544Z,102149.08
2023-05-14T20:35:26.531Z,102152.60
2023-05-14T20:37:53.840Z,102151.76
2023-05-14T20:40:21.607Z,102148.10
2023-05-14T20:42:50.667Z,102141.81
2023-05-14T20:45:18.323Z,102137.81
2023-05-14T20:47:45.547Z,102133.83
2023-05-14T20:50:13.971Z,102125.61
2023-05-14T20:52:41.414Z,102125.72
2023-05-14T20:55:09.177Z,102126.16
2023-05-14T20:57:36.431Z,102121.04
2023-05-14T21:00:08.288Z,102122.61
2023-05-14T21:02:35.489Z,102121.38
2023-05-14T21:05:02.834Z,102118.85
2023-05-14T21:07:30.557Z,102111.77
2023-05-14T21:09:57.704Z,102115.21
2023-05-14T21:12:24.897Z,102119.14
2023-05-14T21:14:51.906Z,102119.02
2023-05-14T21:17:19.317Z,102112.35
2023-05-14T21:19:46.506Z,102113.77
2023-05-14T21:22:14.172Z,102112.03
2023-05-14T21:24:41.631Z,102114.47
2023-05-14T21:27:08.672Z,102108.31
2023-05-14T21:29:35.825Z,102100.23
2023-05-14T21:32:03.247Z,102104.10
2023-05-14T21:34:32.037Z,102102.34
2023-05-14T21:36:59.221Z,102110.05
2023-05-14T21:39:26.262Z,102111.65
2023-05-14T21:41:53.511Z,102113.77
2023-05-14T21:44:21.894Z,102113.22
2023-05-14T21:46:49.315Z,102113.37
2023-05-14T21:49:16.395Z,102113.89
2023-05-14T21:51:43.442Z,102105.13
2023-05-14T21:54:10.712Z,102103.19
2023-05-14T21:56:37.767Z,102096.70
2023-05-14T21:59:05.093Z,102093.92
2023-05-14T22:01:33.807Z,102088.86
2023-05-14T22:04:05.680Z,102085.89
2023-05-14T22:06:33.923Z,102084.17
2023-05-14T22:09:00.968Z,102081.44
2023-05-14T22:11:28.315Z,102084.14
2023-05-14T22:13:55.362Z,102081.89
2023-05-14T22:16:23.000Z,102077.73
2023-05-14T22:18:50.326Z,102076.36
2023-05-14T22:21:17.425Z,102077.83
2023-05-14T22:23:45.608Z,102080.23
2023-05-14T22:26:12.644Z,102075.76
2023-05-14T22:28:43.208Z,102077.59
2023-05-14T22:31:10.718Z,102079.97
2023-05-14T22:33:38.093Z,102076.15
2023-05-14T22:36:07.217Z,102070.40
2023-05-14T22:38:34.538Z,102068.73
2023-05-14T22:41:01.588Z,102064.94
2023-05-14T22:43:29.652Z,102066.45
2023-05-14T22:45:56.702Z,102063.40
2023-05-14T22:48:24.468Z,102061.92
2023-05-14T22:50:52.131Z,102058.34
2023-05-14T22:53:19.173Z,102055.52
2023-05-14T22:55:46.368Z,102054.23
2023-05-14T22:58:13.472Z,102056.79
2023-05-14T23:00:40.620Z,102053.95
2023-05-14T23:03:07.765Z,102051.58
2023-05-14T23:05:35.037Z,102052.60
2023-05-14T23:08:02.239Z,102051.14
2023-05-14T23:10:29.942Z,102050.37
2023-05-14T23:12:57.089Z,102043.45
2023-05-14T23:15:24.346Z,102040.42
2023-05-14T23:17:51.643Z,102041.45
2023-05-14T23:20:19.146Z,102042.27
2023-05-14T23:22:46.314Z,102039.91
2023-05-14T23:25:13.606Z,102046.17
2023-05-14T23:27:40.695Z,102048.23
2023-05-14T23:30:08.360Z,102049.52
2023-05-14T23:32:36.261Z,102044.30
2023-05-14T23:35:03.676Z,102042.25
2023-05-14T23:37:30.822Z,102036.36
2023-05-14T23:39:57.872Z,102033.57
2023-05-14T23:42:25.151Z,102039.02
2023-05-14T23:44:52.400Z,102039.77
2023-05-14T23:47:19.456Z,102042.11
2023-05-14T23:49:46.776Z,102037.86
2023-05-14T23:52:13.928Z,102037.23
2023-05-14T23:54:40.937Z,102034.29
2023-05-14T23:57:08.268Z,102029.23
2023-05-14T23:59:35.375Z,102029.05
